Time;durP1;ratioP1;P1;durP2;ratioP2;P2;SDS_P1;SDS_P2;PMS_P1;PMS_P2;Temp;Humidity;BMP_temperature;BMP_pressure;BME280_temperature;BME280_humidity;BME280_pressure;Samples;Min_cycle;Max_cycle;Signal;HPM_P1;HPM_P2
2022/08/27 00:03:25;;;;;;;3.25;1.15;;;;;;;24.32;41.16;101675.25;16143175;19;130107;-42
2022/08/27 00:08:48;;;;;;;3.53;0.85;;;;;;;24.31;41.05;101674.41;16143141;19;129488;-42
2022/08/27 00:14:10;;;;;;;2.78;1.20;;;;;;;24.30;40.78;101671.88;16139927;19;129913;-43
2022/08/27 00:19:34;;;;;;;3.38;1.08;;;;;;;24.28;40.99;101663.78;16136057;19;131015;-44
2022/08/27 00:24:56;;;;;;;2.67;1.17;;;;;;;24.29;41.14;101664.59;16142871;19;131937;-42
2022/08/27 00:30:21;;;;;;;4.13;1.10;;;;;;;24.29;40.99;101670.19;16139445;19;128984;-42
2022/08/27 00:35:43;;;;;;;1.80;0.82;;;;;;;24.26;41.02;101665.97;16141222;19;130561;-43
2022/08/27 00:41:07;;;;;;;2.00;0.80;;;;;;;24.25;40.89;101676.31;16135951;19;128895;-43
2022/08/27 00:46:40;;;;;;;1.73;1.00;;;;;;;24.26;40.78;101671.56;16138114;19;129858;-44
2022/08/27 00:52:25;;;;;;;2.20;0.85;;;;;;;24.24;40.93;101669.06;16139830;19;129803;-42
2022/08/27 00:57:55;;;;;;;1.25;0.70;;;;;;;24.22;40.95;101665.66;16137610;19;129602;-44
2022/08/27 01:03:17;;;;;;;2.35;1.13;;;;;;;24.21;41.29;101663.97;16140696;19;128874;-42
2022/08/27 01:08:43;;;;;;;1.80;1.17;;;;;;;24.21;41.23;101674.28;16140778;19;129145;-44
2022/08/27 01:14:05;;;;;;;2.50;1.00;;;;;;;24.19;41.15;101666.19;16140326;19;129229;-43
2022/08/27 01:19:38;;;;;;;3.08;1.00;;;;;;;24.20;41.09;101664.22;16136649;19;131954;-42
2022/08/27 01:25:12;;;;;;;2.28;1.00;;;;;;;24.18;40.76;101658.91;16139046;19;129623;-42
2022/08/27 01:30:35;;;;;;;2.67;1.17;;;;;;;24.16;41.04;101652.72;16136356;19;130615;-43
2022/08/27 01:35:57;;;;;;;1.85;0.85;;;;;;;24.17;41.20;101661.97;16138002;19;129619;-42
2022/08/27 01:41:19;;;;;;;1.48;0.73;;;;;;;24.15;41.12;101651.03;16133078;19;129921;-43
2022/08/27 01:46:41;;;;;;;1.95;0.90;;;;;;;24.15;41.21;101648.25;16134458;19;128910;-42
2022/08/27 01:52:03;;;;;;;1.33;0.80;;;;;;;24.14;41.12;101660.53;16136853;19;129434;-44
2022/08/27 01:57:28;;;;;;;2.03;0.82;;;;;;;24.13;41.20;101656.03;16131224;19;130801;-42
2022/08/27 02:02:50;;;;;;;1.27;0.70;;;;;;;24.11;41.23;101659.13;16135849;19;132362;-46
2022/08/27 02:08:14;;;;;;;2.45;0.93;;;;;;;24.11;41.33;101647.94;16135221;19;129176;-43
2022/08/27 02:13:38;;;;;;;1.77;0.60;;;;;;;24.09;41.25;101650.16;16136561;19;129448;-47
2022/08/27 02:18:59;;;;;;;2.25;0.85;;;;;;;24.09;41.22;101652.13;16129666;19;129401;-41
2022/08/27 02:24:22;;;;;;;1.98;0.77;;;;;;;24.08;41.07;101642.03;16134209;19;129488;-43
2022/08/27 02:29:46;;;;;;;1.70;0.80;;;;;;;24.07;41.38;101641.19;16133631;19;129041;-42
2022/08/27 02:35:10;;;;;;;1.30;0.57;;;;;;;24.06;41.51;101639.50;16130450;19;130037;-42
2022/08/27 02:40:32;;;;;;;3.40;0.93;;;;;;;24.05;41.11;101629.44;16134896;19;132121;-42
2022/08/27 02:45:54;;;;;;;1.60;0.80;;;;;;;24.04;40.92;101636.16;16146814;19;129433;-44
2022/08/27 02:51:15;;;;;;;2.53;0.85;;;;;;;24.03;41.24;101633.59;16149181;19;129493;-44
2022/08/27 02:56:38;;;;;;;1.17;0.73;;;;;;;24.03;41.13;101633.59;16145100;19;129191;-42
2022/08/27 03:02:00;;;;;;;2.30;0.70;;;;;;;24.02;41.14;101638.38;16148246;19;130415;-42
2022/08/27 03:07:23;;;;;;;2.70;0.60;;;;;;;24.00;40.92;101634.16;16147725;19;129228;-42
2022/08/27 03:12:45;;;;;;;2.25;0.82;;;;;;;24.00;41.41;101639.75;16146348;19;129650;-42
2022/08/27 03:18:20;;;;;;;2.53;0.80;;;;;;;23.99;41.07;101650.06;16144511;19;129239;-44
2022/08/27 03:23:42;;;;;;;2.97;0.90;;;;;;;23.96;41.01;101640.28;16146080;19;129361;-42
2022/08/27 03:29:04;;;;;;;1.80;0.80;;;;;;;23.96;41.04;101637.47;16145909;19;129384;-42
2022/08/27 03:34:25;;;;;;;1.05;0.70;;;;;;;23.94;40.87;101636.88;16145886;19;129502;-46
2022/08/27 03:39:47;;;;;;;3.28;1.00;;;;;;;23.95;40.76;101637.72;16140093;19;129686;-42
2022/08/27 03:45:09;;;;;;;1.20;0.80;;;;;;;23.94;40.86;101633.25;16143638;19;129543;-42
2022/08/27 03:50:32;;;;;;;1.48;0.82;;;;;;;23.93;40.95;101634.38;16143897;19;132251;-44
2022/08/27 03:55:54;;;;;;;2.15;0.95;;;;;;;23.92;41.12;101632.69;16144046;19;129535;-43
2022/08/27 04:01:16;;;;;;;2.72;0.90;;;;;;;23.91;40.76;101636.59;16138661;19;130090;-42
2022/08/27 04:06:38;;;;;;;3.28;1.02;;;;;;;23.91;40.97;101631.00;16141811;19;129210;-44
2022/08/27 04:11:59;;;;;;;1.77;0.88;;;;;;;23.90;40.91;101640.50;16143005;19;128857;-42
2022/08/27 04:17:21;;;;;;;1.42;0.70;;;;;;;23.88;40.84;101637.94;16143281;19;129196;-43
2022/08/27 04:22:43;;;;;;;1.00;0.63;;;;;;;23.88;41.14;101637.09;16144571;19;129393;-44
2022/08/27 04:28:06;;;;;;;1.10;0.60;;;;;;;23.88;41.01;101637.09;16143209;19;129377;-42
2022/08/27 04:33:28;;;;;;;1.25;0.65;;;;;;;23.88;41.00;101637.09;16143252;19;129763;-43
2022/08/27 04:38:49;;;;;;;1.23;0.70;;;;;;;23.87;41.23;101639.06;16137235;19;128922;-45
2022/08/27 04:44:11;;;;;;;2.08;0.73;;;;;;;23.87;41.06;101630.69;16142232;19;129857;-43
2022/08/27 04:49:33;;;;;;;0.82;0.60;;;;;;;23.86;40.95;101640.19;16136312;19;130014;-42
2022/08/27 04:54:55;;;;;;;1.30;0.57;;;;;;;23.85;41.21;101637.63;16141872;19;130023;-46
2022/08/27 05:00:18;;;;;;;1.40;0.55;;;;;;;23.85;41.10;101640.44;16137827;19;130863;-41
2022/08/27 05:05:41;;;;;;;1.88;0.50;;;;;;;23.85;41.27;101648.81;16136459;19;129429;-43
2022/08/27 05:11:06;;;;;;;1.42;0.68;;;;;;;23.83;41.18;101649.09;16140932;19;129728;-42
2022/08/27 05:16:28;;;;;;;1.75;0.55;;;;;;;23.81;41.18;101649.38;16140760;19;129409;-42
2022/08/27 05:21:52;;;;;;;2.80;0.70;;;;;;;23.81;40.96;101652.16;16135447;19;130613;-42
2022/08/27 05:27:13;;;;;;;1.27;0.75;;;;;;;23.80;41.25;101652.41;16137579;19;128887;-43
2022/08/27 05:32:35;;;;;;;1.38;0.68;;;;;;;23.80;41.45;101658.84;16133121;19;129717;-42
2022/08/27 05:37:58;;;;;;;1.27;0.60;;;;;;;23.79;41.31;101661.88;16136238;19;130186;-41
2022/08/27 05:43:20;;;;;;;2.35;0.90;;;;;;;23.79;40.99;101661.88;16137066;19;129036;-44
2022/08/27 05:48:42;;;;;;;2.13;0.80;;;;;;;23.78;41.16;101672.22;16133679;19;129081;-42
2022/08/27 05:54:07;;;;;;;3.10;0.80;;;;;;;23.77;40.99;101675.28;16135542;19;128840;-42
2022/08/27 06:05:10;;;;;;;3.60;0.90;;;;;;;23.74;40.67;101665.47;16135470;19;130645;-43
2022/08/27 06:10:32;;;;;;;1.63;0.73;;;;;;;23.75;40.98;101666.34;16136948;19;129505;-44
2022/08/27 06:16:05;;;;;;;2.20;0.70;;;;;;;23.75;41.13;101667.16;16142078;19;130111;-42
2022/08/27 06:21:27;;;;;;;2.83;0.80;;;;;;;23.74;41.33;101664.66;16146622;19;129995;-42
2022/08/27 06:26:49;;;;;;;4.85;0.80;;;;;;;23.73;40.86;101674.13;16148512;19;129421;-43
2022/08/27 06:32:12;;;;;;;2.00;0.90;;;;;;;23.72;41.08;101664.88;16148392;19;129486;-41
2022/08/27 06:37:33;;;;;;;7.85;0.85;;;;;;;23.72;41.08;101661.28;16149444;19;129436;-42
2022/08/27 06:42:56;;;;;;;2.20;0.70;;;;;;;23.73;41.03;101668.53;16147847;19;129039;-42
2022/08/27 06:48:18;;;;;;;2.58;0.85;;;;;;;23.74;41.19;101664.66;16146184;19;130877;-42
2022/08/27 06:53:40;;;;;;;1.60;0.77;;;;;;;23.73;40.70;101652.63;16150405;19;129152;-42
2022/08/27 06:59:06;;;;;;;10.18;1.67;;;;;;;23.72;41.02;101662.09;16147359;19;131582;-43
2022/08/27 07:04:32;;;;;;;9.38;1.92;;;;;;;23.68;40.63;101654.50;16148136;19;129750;-43
2022/08/27 07:09:54;;;;;;;4.95;1.80;;;;;;;23.65;40.78;101665.09;16148849;19;129281;-45
2022/08/27 07:15:17;;;;;;;7.68;1.88;;;;;;;23.64;40.43;101666.22;16148289;19;132438;-43
2022/08/27 07:20:42;;;;;;;6.88;1.70;;;;;;;23.64;39.97;101666.22;16142887;19;128832;-42
2022/08/27 07:26:12;;;;;;;3.63;1.48;;;;;;;23.64;40.04;101666.22;16145643;19;129288;-42
2022/08/27 07:31:37;;;;;;;6.47;2.20;;;;;;;23.63;40.11;101670.09;16146385;19;130348;-44
2022/08/27 07:36:59;;;;;;;5.43;1.60;;;;;;;23.61;40.12;101677.06;16142208;19;129372;-45
2022/08/27 07:48:01;;;;;;;4.78;1.55;;;;;;;23.63;39.78;101681.28;16141975;19;130306;-42
2022/08/27 07:53:23;;;;;;;3.67;1.25;;;;;;;23.66;39.86;101685.50;16144456;19;129955;-43
2022/08/27 07:58:45;;;;;;;5.20;1.40;;;;;;;23.70;39.72;101686.66;16141190;19;129780;-42
2022/08/27 08:04:08;;;;;;;5.10;1.33;;;;;;;23.83;39.14;101685.41;16143654;19;129416;-46
2022/08/27 08:09:32;;;;;;;4.00;1.38;;;;;;;23.91;38.83;101682.13;16143389;19;129034;-42
2022/08/27 08:14:56;;;;;;;6.03;1.27;;;;;;;24.02;39.05;101693.41;16141021;19;128840;-45
2022/08/27 08:20:18;;;;;;;6.33;1.40;;;;;;;24.07;38.80;101691.50;16143069;19;129560;-44
2022/08/27 08:26:00;;;;;;;4.57;1.23;;;;;;;24.15;38.45;101692.97;16142818;19;133749;-42
2022/08/27 08:31:22;;;;;;;4.68;1.20;;;;;;;24.21;38.18;101691.06;16140168;19;129812;-44
2022/08/27 08:36:45;;;;;;;3.67;1.27;;;;;;;24.30;37.83;101697.03;16136441;19;129172;-43
2022/08/27 08:42:37;;;;;;;5.82;1.15;;;;;;;24.36;37.82;101699.63;16137845;19;129454;-42
2022/08/27 08:48:16;;;;;;;2.97;1.20;;;;;;;24.40;38.24;101695.19;16135761;19;129572;-42
2022/08/27 08:53:46;;;;;;;4.47;1.00;;;;;;;24.42;37.70;101698.56;16143388;19;130322;-42
2022/08/27 08:59:21;;;;;;;4.32;1.10;;;;;;;24.40;37.82;101702.72;16139030;19;130245;-42
2022/08/27 09:04:44;;;;;;;3.73;1.20;;;;;;;24.36;37.84;101704.38;16139298;19;130369;-43
2022/08/27 09:10:25;;;;;;;6.43;1.33;;;;;;;24.29;37.64;101699.00;16137822;19;130814;-43
2022/08/27 09:15:47;;;;;;;7.80;1.23;;;;;;;24.23;37.52;101705.63;16136235;19;129931;-42
2022/08/27 09:21:34;;;;;;;4.28;1.10;;;;;;;24.19;37.61;101707.25;16131317;19;129941;-46
2022/08/27 09:26:55;;;;;;;;;;;;;;;24.12;37.80;101704.72;16134619;19;129004;-45
2022/08/27 09:32:25;;;;;;;3.03;1.10;;;;;;;24.11;37.46;101709.44;16136859;19;129494;-43
2022/08/27 09:37:50;;;;;;;3.78;1.13;;;;;;;24.08;37.80;101714.72;16133849;19;129037;-42
2022/08/27 09:43:15;;;;;;;;;;;;;;;24.04;38.00;101707.97;16133393;19;129350;-42
2022/08/27 09:48:37;;;;;;;2.60;0.90;;;;;;;24.06;38.18;101716.94;16132636;19;129123;-43
2022/08/27 09:54:02;;;;;;;3.42;1.10;;;;;;;24.05;38.23;101712.44;16138662;19;129162;-42
2022/08/27 09:59:34;;;;;;;1.83;0.93;;;;;;;24.04;38.16;101702.38;16136831;19;129442;-42
2022/08/27 10:05:00;;;;;;;1.77;0.70;;;;;;;24.05;38.03;101704.06;16132100;19;129696;-43
2022/08/27 10:10:31;;;;;;;3.35;1.15;;;;;;;24.05;38.22;101693.75;16136245;19;129286;-43
2022/08/27 10:16:05;;;;;;;2.00;0.85;;;;;;;24.07;38.54;101699.88;16136756;19;129173;-43
2022/08/27 10:21:43;;;;;;;2.58;1.00;;;;;;;24.10;38.06;101699.34;16133586;19;128839;-44
2022/08/27 10:27:08;;;;;;;1.67;0.77;;;;;;;24.10;38.22;101695.72;16133989;19;130289;-43
2022/08/27 10:32:33;;;;;;;;;;;;;;;24.09;38.39;101694.03;16130483;19;129513;-42
2022/08/27 10:38:20;;;;;;;3.65;1.20;;;;;;;24.15;38.24;101687.38;16131793;19;129972;-43
2022/08/27 10:43:56;;;;;;;1.83;0.82;;;;;;;24.16;38.32;101682.66;16126894;19;128884;-42
2022/08/27 10:49:36;;;;;;;4.43;1.00;;;;;;;24.14;38.64;101694.06;16127348;19;129140;-43
2022/08/27 10:55:20;;;;;;;2.85;0.80;;;;;;;24.11;38.48;101691.84;16132474;19;129788;-41
2022/08/27 11:00:52;;;;;;;3.40;1.05;;;;;;;24.10;38.46;101693.78;16133301;19;129268;-42
2022/08/27 11:06:41;;;;;;;2.45;0.70;;;;;;;24.12;38.68;101690.72;16147893;19;130643;-43
2022/08/27 11:12:08;;;;;;;2.58;1.30;;;;;;;24.15;39.04;101692.13;16147777;19;129659;-46
2022/08/27 11:17:40;;;;;;;8.63;1.00;;;;;;;24.16;38.94;101683.47;16146166;19;129068;-44
2022/08/27 11:23:08;;;;;;;3.88;1.20;;;;;;;24.18;38.48;101681.25;16141601;19;129408;-43
2022/08/27 11:28:36;;;;;;;5.15;1.30;;;;;;;24.16;38.80;101675.09;16140386;19;130497;-44
2022/08/27 11:34:09;;;;;;;7.47;1.40;;;;;;;24.19;38.26;101676.50;16145130;19;129783;-44
2022/08/27 11:39:46;;;;;;;5.32;1.20;;;;;;;24.19;38.56;101676.50;16143417;19;129494;-46
2022/08/27 11:45:17;;;;;;;3.45;1.42;;;;;;;24.20;38.68;101681.84;16144884;19;129682;-43
2022/08/27 11:50:39;;;;;;;6.00;1.40;;;;;;;24.25;38.15;101675.47;16133732;19;131422;-42
2022/08/27 11:56:19;;;;;;;6.28;1.30;;;;;;;24.30;38.06;101674.69;16142626;19;129347;-46
2022/08/27 12:01:41;;;;;;;4.10;1.58;;;;;;;24.31;38.59;101667.97;16138411;19;130821;-43
2022/08/27 12:07:28;;;;;;;2.90;1.55;;;;;;;24.33;38.18;101662.97;16139378;19;128981;-42
2022/08/27 12:13:11;;;;;;;3.45;1.30;;;;;;;24.33;37.76;101652.59;16142333;19;129961;-42
2022/08/27 12:18:44;;;;;;;4.15;1.50;;;;;;;24.32;37.77;101664.06;16142631;19;129620;-47
2022/08/27 12:24:35;;;;;;;3.97;1.27;;;;;;;24.29;38.08;101675.78;16134299;19;129755;-46
2022/08/27 12:30:16;;;;;;;2.70;1.30;;;;;;;24.25;37.86;101676.31;16138920;19;129191;-44
2022/08/27 12:35:46;;;;;;;5.22;1.60;;;;;;;24.24;37.94;101666.25;16133639;19;129338;-42
2022/08/27 12:41:08;;;;;;;4.97;1.30;;;;;;;24.22;37.75;101665.66;16131706;19;129066;-44
2022/08/27 12:46:30;;;;;;;6.65;1.55;;;;;;;24.22;37.97;101662.00;16131046;19;135528;-42
2022/08/27 12:51:57;;;;;;;5.50;1.40;;;;;;;24.21;38.01;101658.38;16137687;19;130481;-46
2022/08/27 12:57:19;;;;;;;4.55;1.50;;;;;;;24.19;37.84;101657.78;16135001;19;129128;-46
2022/08/27 13:03:10;;;;;;;3.13;1.42;;;;;;;24.21;37.90;101657.50;16133651;19;129415;-45
2022/08/27 13:08:34;;;;;;;5.65;1.75;;;;;;;24.20;37.92;101645.50;16135795;19;129472;-44
2022/08/27 13:14:15;;;;;;;3.13;1.20;;;;;;;24.22;37.99;101651.66;16136496;19;130166;-45
2022/08/27 13:19:51;;;;;;;8.60;1.63;;;;;;;24.24;38.22;101649.50;16132022;19;129491;-43
2022/08/27 13:25:26;;;;;;;3.85;1.65;;;;;;;24.25;37.75;101653.94;16137634;19;129286;-48
2022/08/27 13:30:49;;;;;;;5.85;1.52;;;;;;;24.23;37.66;101647.78;16123835;19;129653;-45
2022/08/27 13:36:11;;;;;;;6.32;2.15;;;;;;;24.24;37.67;101640.22;16134783;19;129311;-42
2022/08/27 13:41:36;;;;;;;8.80;1.95;;;;;;;24.24;37.46;101641.09;16134637;19;129705;-47
2022/08/27 13:47:04;;;;;;;8.77;1.57;;;;;;;24.25;37.43;101639.13;16132967;19;132552;-45
2022/08/27 13:52:31;;;;;;;5.45;1.60;;;;;;;24.24;37.26;101638.31;16135536;19;129570;-42
2022/08/27 13:57:54;;;;;;;6.93;1.70;;;;;;;24.23;37.08;101627.34;16128074;19;131033;-43
2022/08/27 14:03:44;;;;;;;6.70;1.23;;;;;;;24.24;36.73;101640.22;16128259;19;130069;-42
2022/08/27 14:09:16;;;;;;;3.38;1.30;;;;;;;24.25;37.12;101637.16;16134446;19;129290;-43
2022/08/27 14:14:40;;;;;;;5.00;1.40;;;;;;;24.25;37.19;101634.38;16135080;19;129220;-44
2022/08/27 14:20:05;;;;;;;3.53;1.40;;;;;;;24.28;37.25;101624.63;16132622;19;129264;-44
2022/08/27 14:25:30;;;;;;;4.07;1.48;;;;;;;24.29;37.23;101634.69;16134043;19;130683;-42
2022/08/27 14:30:52;;;;;;;5.70;1.38;;;;;;;24.29;36.94;101631.03;16129602;19;130446;-46
2022/08/27 14:36:15;;;;;;;5.97;1.45;;;;;;;24.27;36.39;101629.34;16133393;19;129978;-44
2022/08/27 14:41:37;;;;;;;5.20;1.40;;;;;;;24.26;37.02;101624.88;16140594;19;129760;-46
2022/08/27 14:47:01;;;;;;;10.85;3.90;;;;;;;24.25;36.83;101625.16;16146098;19;129305;-53
2022/08/27 14:52:24;;;;;;;12.25;5.25;;;;;;;24.26;36.99;101630.47;16147308;19;129475;-52
2022/08/27 14:57:45;;;;;;;17.90;7.53;;;;;;;24.26;37.01;101629.63;16146962;19;129273;-52
2022/08/27 15:03:09;;;;;;;21.88;7.85;;;;;;;24.26;36.92;101636.06;16143961;19;129973;-52
2022/08/27 15:08:31;;;;;;;17.38;6.88;;;;;;;24.25;37.21;101628.78;16149972;19;130392;-53
2022/08/27 15:13:54;;;;;;;20.63;6.28;;;;;;;24.26;36.81;101632.44;16145709;19;129354;-53
2022/08/27 15:19:16;;;;;;;18.55;6.00;;;;;;;24.27;37.39;101628.53;16144918;19;129154;-53
2022/08/27 15:24:42;;;;;;;12.20;5.05;;;;;;;24.26;37.31;101621.25;16138871;19;128871;-51
2022/08/27 15:30:07;;;;;;;9.35;3.95;;;;;;;24.14;35.81;101624.19;16142184;19;130184;-43
2022/08/27 15:35:31;;;;;;;11.23;2.80;;;;;;;23.97;35.61;101630.78;16142124;19;129362;-44
2022/08/27 15:40:52;;;;;;;6.97;2.72;;;;;;;23.91;35.57;101636.59;16143570;19;129396;-43
2022/08/27 15:46:14;;;;;;;8.45;2.20;;;;;;;23.82;35.51;101627.84;16141600;19;130621;-42
2022/08/27 15:51:36;;;;;;;5.90;1.77;;;;;;;23.76;35.49;101631.69;16141312;19;129811;-43
2022/08/27 15:56:58;;;;;;;5.53;1.40;;;;;;;23.71;35.48;101626.06;16145110;19;129843;-44
2022/08/27 16:02:23;;;;;;;8.18;2.03;;;;;;;23.66;35.78;101636.06;16139051;19;129710;-43
2022/08/27 16:07:45;;;;;;;5.10;1.40;;;;;;;23.63;35.77;101633.78;16143813;19;130586;-43
2022/08/27 16:13:07;;;;;;;6.78;1.55;;;;;;;23.62;36.04;101634.94;16143264;19;130269;-44
2022/08/27 16:18:32;;;;;;;4.35;1.25;;;;;;;23.71;36.71;101626.06;16143990;19;130219;-43
2022/08/27 16:23:54;;;;;;;4.93;1.90;;;;;;;23.76;36.30;101634.47;16140466;19;129339;-44
2022/08/27 16:29:16;;;;;;;5.80;2.20;;;;;;;23.80;36.64;101633.69;16142149;19;129199;-44
2022/08/27 16:34:38;;;;;;;5.22;1.83;;;;;;;23.82;36.64;101628.66;16137070;19;130223;-44
2022/08/27 16:40:00;;;;;;;13.43;3.13;;;;;;;23.86;36.69;101623.41;16140802;19;129440;-43
2022/08/27 16:45:22;;;;;;;14.63;4.45;;;;;;;23.90;37.48;101624.56;16135468;19;130620;-44
2022/08/27 16:50:45;;;;;;;16.98;5.50;;;;;;;23.93;37.60;101624.03;16138217;19;128940;-45
2022/08/27 16:56:06;;;;;;;19.95;6.18;;;;;;;23.92;37.44;101618.72;16138766;19;130134;-44
2022/08/27 17:01:28;;;;;;;15.43;3.60;;;;;;;23.81;36.68;101620.56;16138546;19;129534;-44
2022/08/27 17:06:51;;;;;;;8.60;2.30;;;;;;;23.61;35.89;101619.28;16140146;19;129552;-46
2022/08/27 17:12:17;;;;;;;10.57;2.55;;;;;;;23.39;35.44;101612.81;16139234;19;129451;-42
2022/08/27 17:17:40;;;;;;;6.13;1.80;;;;;;;23.16;35.74;101618.47;16138428;19;130092;-43
2022/08/27 17:23:03;;;;;;;16.00;2.80;;;;;;;23.00;35.97;101617.44;16138391;19;128932;-43
2022/08/27 17:28:25;;;;;;;8.23;2.30;;;;;;;22.96;36.88;101621.84;16138935;19;130142;-42
2022/08/27 17:33:51;;;;;;;30.98;6.80;;;;;;;23.13;37.57;101620.94;16140290;19;130785;-43
2022/08/27 17:39:13;;;;;;;25.38;7.50;;;;;;;23.34;38.32;101624.78;16139103;19;131759;-45
2022/08/27 17:44:36;;;;;;;40.40;7.60;;;;;;;23.51;38.83;101624.69;16134985;19;128732;-45
2022/08/27 17:49:58;;;;;;;47.80;8.35;;;;;;;23.64;39.11;101618.72;16136766;19;134560;-44
2022/08/27 17:55:19;;;;;;;33.03;9.85;;;;;;;23.75;38.99;101622.47;16138341;19;129551;-46
2022/08/27 18:00:44;;;;;;;42.53;8.10;;;;;;;23.83;39.60;101626.72;16137879;19;132377;-44
2022/08/27 18:06:06;;;;;;;43.47;7.63;;;;;;;23.86;38.91;101637.38;16134851;19;129881;-45
2022/08/27 18:11:28;;;;;;;33.40;5.88;;;;;;;23.90;39.13;101635.72;16135312;19;129677;-48
2022/08/27 18:16:50;;;;;;;27.80;5.03;;;;;;;23.93;39.09;101635.19;16137531;19;130622;-47
2022/08/27 18:22:11;;;;;;;31.13;3.90;;;;;;;23.95;38.81;101635.78;16134750;19;130341;-44
2022/08/27 18:27:36;;;;;;;18.48;3.85;;;;;;;23.97;38.85;101646.69;16134391;19;129378;-48
2022/08/27 18:32:58;;;;;;;22.37;3.27;;;;;;;23.99;38.91;101649.25;16134632;19;129928;-47
2022/08/27 18:38:20;;;;;;;26.13;2.78;;;;;;;24.00;38.95;101656.50;16127430;19;130141;-45
2022/08/27 18:43:42;;;;;;;16.90;3.05;;;;;;;24.01;39.11;101669.34;16130499;19;130019;-45
2022/08/27 18:49:04;;;;;;;13.55;2.25;;;;;;;24.01;38.92;101670.22;16127478;19;129333;-44
2022/08/27 18:54:26;;;;;;;11.88;2.45;;;;;;;24.03;39.11;101672.72;16131848;19;130570;-44
2022/08/27 18:59:48;;;;;;;10.65;2.50;;;;;;;24.04;39.23;101680.00;16132257;19;130067;-46
2022/08/27 19:05:12;;;;;;;7.93;2.10;;;;;;;24.04;39.30;101680.00;16127609;19;130457;-47
2022/08/27 19:10:33;;;;;;;9.18;1.90;;;;;;;24.04;39.35;101692.06;16128207;19;130457;-46
2022/08/27 19:16:01;;;;;;;9.57;1.55;;;;;;;24.05;39.22;101692.88;16132770;19;129062;-45
2022/08/27 19:21:22;;;;;;;8.10;1.83;;;;;;;24.04;39.35;101691.19;16130951;19;129691;-46
2022/08/27 19:26:45;;;;;;;9.88;1.77;;;;;;;24.05;39.22;101698.47;16145859;19;129784;-43
2022/08/27 19:32:07;;;;;;;17.52;2.50;;;;;;;24.03;39.45;101700.69;16145376;19;129232;-44
2022/08/27 19:37:30;;;;;;;12.13;2.20;;;;;;;24.04;39.47;101702.38;16145363;19;129396;-45
2022/08/27 19:42:52;;;;;;;12.10;1.60;;;;;;;24.05;39.52;101718.03;16142172;19;129420;-47
2022/08/27 19:48:15;;;;;;;11.40;1.65;;;;;;;24.04;39.19;101710.75;16140057;19;130234;-43
2022/08/27 19:53:37;;;;;;;6.45;1.38;;;;;;;24.03;39.60;101707.13;16143631;19;129701;-44
2022/08/27 19:59:00;;;;;;;10.75;1.90;;;;;;;24.03;39.52;101711.88;16143758;19;128972;-43
2022/08/27 20:04:41;;;;;;;6.85;1.33;;;;;;;24.03;39.46;101712.72;16139007;19;129221;-47
2022/08/27 20:10:26;;;;;;;4.47;1.52;;;;;;;24.03;39.50;101717.44;16144432;19;129449;-46
2022/08/27 20:15:57;;;;;;;5.88;1.40;;;;;;;24.02;39.69;101725.00;16143501;19;129172;-44
2022/08/27 20:21:19;;;;;;;12.60;1.73;;;;;;;24.04;39.77;101730.31;16139547;19;128936;-42
2022/08/27 20:26:41;;;;;;;11.45;1.30;;;;;;;24.03;39.54;101734.22;16139136;19;129873;-44
2022/08/27 20:32:03;;;;;;;10.00;1.20;;;;;;;24.02;39.80;101721.34;16142167;19;130162;-42
2022/08/27 20:37:25;;;;;;;6.15;1.20;;;;;;;24.03;39.76;101728.63;16138267;19;128861;-42
2022/08/27 20:42:47;;;;;;;9.32;1.27;;;;;;;24.04;39.49;101728.38;16140714;19;129427;-44
2022/08/27 20:48:10;;;;;;;3.85;1.00;;;;;;;24.06;39.24;101733.69;16138757;19;128860;-45
2022/08/27 20:53:32;;;;;;;2.65;0.90;;;;;;;24.06;39.38;101728.09;16141896;19;129131;-42
2022/08/27 21:04:36;;;;;;;6.88;1.10;;;;;;;24.07;39.23;101735.38;16137459;19;131236;-47
2022/08/27 21:09:58;;;;;;;5.38;1.13;;;;;;;24.06;39.11;101744.88;16142069;19;130198;-44
2022/08/27 21:15:20;;;;;;;6.13;1.35;;;;;;;24.03;39.09;101742.59;16139578;19;129412;-44
2022/08/27 21:20:42;;;;;;;4.95;1.30;;;;;;;24.01;38.88;101745.69;16140427;19;129404;-45
2022/08/27 21:26:10;;;;;;;4.25;1.65;;;;;;;23.97;38.78;101753.75;16133558;19;128933;-46
2022/08/27 21:31:32;;;;;;;4.30;0.93;;;;;;;23.93;38.73;101749.78;16137755;19;130580;-46
2022/08/27 21:36:54;;;;;;;3.97;1.20;;;;;;;23.91;38.90;101746.41;16134989;19;130149;-43
2022/08/27 21:42:16;;;;;;;4.35;0.80;;;;;;;23.88;38.66;101749.72;16136337;19;129042;-44
2022/08/27 21:47:38;;;;;;;3.25;0.80;;;;;;;23.86;38.99;101749.16;16117177;19;132170;-45
2022/08/27 21:53:00;;;;;;;1.98;0.77;;;;;;;23.85;38.86;101755.00;16133415;19;130031;-45
2022/08/27 21:58:22;;;;;;;4.78;1.10;;;;;;;23.82;38.67;101750.78;16134574;19;131434;-46
2022/08/27 22:03:50;;;;;;;4.97;0.80;;;;;;;23.80;38.69;101753.00;16134001;19;129173;-43
2022/08/27 22:09:12;;;;;;;5.30;1.08;;;;;;;23.78;38.67;101756.06;16135401;19;129391;-43
2022/08/27 22:14:36;;;;;;;4.15;1.10;;;;;;;23.79;38.85;101751.28;16135859;19;130219;-43
2022/08/27 22:19:59;;;;;;;2.08;0.90;;;;;;;23.76;38.60;101755.47;16136035;19;129347;-43
2022/08/27 22:25:21;;;;;;;4.00;1.02;;;;;;;23.75;38.76;101752.94;16131016;19;134239;-44
2022/08/27 22:30:43;;;;;;;4.05;1.23;;;;;;;23.74;38.53;101759.63;16133565;19;129923;-44
2022/08/27 22:36:05;;;;;;;5.28;1.05;;;;;;;23.73;38.80;101769.94;16131710;19;129692;-45
2022/08/27 22:41:27;;;;;;;6.40;1.30;;;;;;;23.73;38.61;101771.91;16130702;19;129763;-44
2022/08/27 22:46:52;;;;;;;;;;;;;;;23.68;38.61;101767.13;16128927;19;129607;-45
2022/08/27 22:52:14;;;;;;;3.42;0.90;;;;;;;23.70;38.54;101772.44;16132439;19;129764;-44
2022/08/27 22:57:36;;;;;;;3.88;1.33;;;;;;;23.68;38.57;101769.03;16137335;19;130513;-43
2022/08/27 23:02:59;;;;;;;3.97;0.90;;;;;;;23.67;38.28;101782.19;16141149;19;129820;-44
2022/08/27 23:08:21;;;;;;;2.42;0.93;;;;;;;23.66;38.58;101772.13;16145465;19;128997;-46
2022/08/27 23:13:44;;;;;;;2.05;0.98;;;;;;;23.65;38.67;101767.63;16147832;19;129891;-43
2022/08/27 23:19:05;;;;;;;3.15;0.90;;;;;;;23.63;38.54;101779.03;16145918;19;129384;-43
2022/08/27 23:24:27;;;;;;;3.33;1.13;;;;;;;23.63;38.67;101773.44;16144018;19;129087;-43
2022/08/27 23:29:51;;;;;;;3.42;0.90;;;;;;;23.61;38.43;101774.81;16147237;19;130269;-43
2022/08/27 23:35:14;;;;;;;2.40;0.98;;;;;;;23.58;38.29;101772.50;16144505;19;129834;-45
2022/08/27 23:40:36;;;;;;;2.90;0.90;;;;;;;23.58;38.42;101767.81;16139933;19;129026;-45
2022/08/27 23:45:58;;;;;;;4.43;1.20;;;;;;;23.58;38.20;101772.50;16140189;19;129740;-43
2022/08/27 23:51:19;;;;;;;3.40;1.00;;;;;;;23.58;38.61;101772.50;16144998;19;130902;-43
2022/08/27 23:56:41;;;;;;;4.18;1.27;;;;;;;23.55;37.99;101771.09;16145204;19;129374;-44
